Terminal Aerodrome Forecast
Issued by NWS

Home | Current Version | Previous Version | Text Only | Print | Product List | Glossary On
Versions: 1 2 3 4 5 6 7 8 9 10 11 12 13 14
865
FTUS43 KMPX 131738
TAFAXN
TAF
KAXN 131738Z 1318/1418 33025G38KT P6SM BKN015
     FM132200 33021G29KT P6SM BKN015
     FM140100 34013KT P6SM BKN015
     FM140400 33009KT P6SM BKN015
     FM140900 30007KT P6SM BKN010
     FM141500 30005KT P6SM BKN008=

USA.gov is the U.S. government's official web portal to all federal, state and local government web resources and services.